createdAt,value
2023-01-22T00:00:18.427Z,-7.82
2023-01-22T00:01:18.076Z,-7.70
2023-01-22T00:02:18.185Z,-7.68
2023-01-22T00:03:18.116Z,-7.70
2023-01-22T00:04:18.039Z,-7.91
2023-01-22T00:05:18.032Z,-7.80
2023-01-22T00:06:18.039Z,-7.66
2023-01-22T00:07:18.017Z,-7.59
2023-01-22T00:08:18.017Z,-7.77
2023-01-22T00:09:17.991Z,-7.62
2023-01-22T00:10:18.297Z,-7.62
2023-01-22T00:11:17.973Z,-7.80
2023-01-22T00:12:17.975Z,-7.73
2023-01-22T00:13:17.945Z,-7.78
2023-01-22T00:14:17.945Z,-7.71
2023-01-22T00:15:17.936Z,-7.70
2023-01-22T00:16:17.987Z,-7.66
2023-01-22T00:17:17.904Z,-7.76
2023-01-22T00:18:17.904Z,-7.82
2023-01-22T00:19:17.901Z,-7.67
2023-01-22T00:20:18.174Z,-7.66
2023-01-22T00:21:17.862Z,-7.73
2023-01-22T00:22:17.850Z,-7.73
2023-01-22T00:23:17.851Z,-7.78
2023-01-22T00:24:17.862Z,-7.73
2023-01-22T00:25:17.836Z,-7.73
2023-01-22T00:26:17.848Z,-7.64
2023-01-22T00:27:17.798Z,-7.66
2023-01-22T00:28:17.784Z,-7.70
2023-01-22T00:29:17.778Z,-7.67
2023-01-22T00:30:18.154Z,-7.80
2023-01-22T00:31:17.834Z,-7.76
2023-01-22T00:32:17.882Z,-7.64
2023-01-22T00:33:17.737Z,-7.80
2023-01-22T00:34:17.725Z,-7.67
2023-01-22T00:35:17.722Z,-7.77
2023-01-22T00:36:17.718Z,-7.67
2023-01-22T00:37:17.707Z,-7.71
2023-01-22T00:38:17.681Z,-7.68
2023-01-22T00:39:17.673Z,-7.64
2023-01-22T00:40:18.008Z,-7.76
2023-01-22T00:41:17.658Z,-7.80
2023-01-22T00:42:17.673Z,-7.74
2023-01-22T00:43:17.644Z,-7.77
2023-01-22T00:44:17.623Z,-7.71
2023-01-22T00:45:17.632Z,-7.80
2023-01-22T00:46:17.640Z,-7.78
2023-01-22T00:47:17.594Z,-7.88
2023-01-22T00:48:17.585Z,-7.98
2023-01-22T00:49:17.586Z,-7.82
2023-01-22T00:50:17.932Z,-7.91
2023-01-22T00:51:17.579Z,-7.94
2023-01-22T00:52:17.534Z,-7.84
2023-01-22T00:53:17.536Z,-7.88
2023-01-22T00:54:17.551Z,-7.94
2023-01-22T00:55:17.507Z,-7.96
2023-01-22T00:56:17.546Z,-7.94
2023-01-22T00:57:17.486Z,-7.94
2023-01-22T00:58:17.470Z,-7.85
2023-01-22T00:59:17.471Z,-7.96
2023-01-22T01:00:17.686Z,-7.91
2023-01-22T01:01:17.441Z,-7.98
2023-01-22T01:02:17.500Z,-8.06
2023-01-22T01:03:17.429Z,-7.92
2023-01-22T01:04:17.419Z,-7.89
2023-01-22T01:05:17.403Z,-8.04
2023-01-22T01:06:17.402Z,-7.96
2023-01-22T01:07:17.378Z,-7.82
2023-01-22T01:08:17.368Z,-7.88
2023-01-22T01:09:17.373Z,-7.96
2023-01-22T01:10:17.783Z,-7.91
2023-01-22T01:11:17.342Z,-7.96
2023-01-22T01:12:17.372Z,-7.98
2023-01-22T01:13:17.434Z,-8.08
2023-01-22T01:14:17.320Z,-7.98
2023-01-22T01:15:17.302Z,-7.99
2023-01-22T01:16:17.321Z,-7.96
2023-01-22T01:17:17.275Z,-7.94
2023-01-22T01:18:17.390Z,-8.08
2023-01-22T01:19:17.298Z,-7.92
2023-01-22T01:20:17.669Z,-7.92
2023-01-22T01:21:17.272Z,-7.85
2023-01-22T01:22:17.220Z,-8.03
2023-01-22T01:23:17.215Z,-7.94
2023-01-22T01:24:17.230Z,-7.95
2023-01-22T01:25:17.194Z,-8.10
2023-01-22T01:26:17.178Z,-7.99
2023-01-22T01:27:17.167Z,-7.98
2023-01-22T01:28:17.161Z,-8.14
2023-01-22T01:29:17.270Z,-8.04
2023-01-22T01:30:17.530Z,-7.95
2023-01-22T01:31:17.256Z,-8.06
2023-01-22T01:32:17.129Z,-7.99
2023-01-22T01:33:17.105Z,-8.10
2023-01-22T01:34:17.097Z,-7.99
2023-01-22T01:35:17.083Z,-8.06
2023-01-22T01:36:18.265Z,-7.96
2023-01-22T01:37:17.063Z,-7.87
2023-01-22T01:38:17.063Z,-8.13
2023-01-22T01:39:17.048Z,-7.82
2023-01-22T01:40:17.281Z,-8.07
2023-01-22T01:41:17.037Z,-8.06
2023-01-22T01:42:17.054Z,-8.14
2023-01-22T01:43:16.999Z,-8.03
2023-01-22T01:44:17.015Z,-8.06
2023-01-22T01:45:17.105Z,-8.11
2023-01-22T01:46:16.984Z,-7.95
2023-01-22T01:47:16.978Z,-8.07
2023-01-22T01:48:16.962Z,-8.03
2023-01-22T01:49:16.937Z,-8.06
2023-01-22T01:50:17.178Z,-8.13
2023-01-22T01:51:17.011Z,-8.08
2023-01-22T01:52:16.932Z,-8.04
2023-01-22T01:53:16.892Z,-8.06
2023-01-22T01:54:16.903Z,-8.17
2023-01-22T01:55:16.879Z,-8.13
2023-01-22T01:56:16.867Z,-8.16
2023-01-22T01:57:16.865Z,-8.14
2023-01-22T01:58:16.856Z,-8.11
2023-01-22T01:59:16.833Z,-8.18
2023-01-22T02:00:17.052Z,-8.17
2023-01-22T02:01:16.936Z,-8.17
2023-01-22T02:02:16.905Z,-8.18
2023-01-22T02:03:16.804Z,-8.25
2023-01-22T02:04:16.797Z,-8.37
2023-01-22T02:05:16.769Z,-8.34
2023-01-22T02:06:16.773Z,-8.13
2023-01-22T02:07:16.750Z,-8.28
2023-01-22T02:08:16.742Z,-8.34
2023-01-22T02:09:16.741Z,-8.31
2023-01-22T02:10:17.102Z,-8.24
2023-01-22T02:11:16.707Z,-8.40
2023-01-22T02:12:16.715Z,-8.43
2023-01-22T02:13:16.697Z,-8.45
2023-01-22T02:14:16.683Z,-8.34
2023-01-22T02:15:16.681Z,-8.50
2023-01-22T02:16:16.702Z,-8.21
2023-01-22T02:17:16.839Z,-8.39
2023-01-22T02:18:16.647Z,-8.39
2023-01-22T02:19:16.622Z,-8.29
2023-01-22T02:20:16.889Z,-8.31
2023-01-22T02:21:16.608Z,-8.34
2023-01-22T02:22:16.600Z,-8.39
2023-01-22T02:23:16.582Z,-8.32
2023-01-22T02:24:16.585Z,-8.34
2023-01-22T02:25:16.566Z,-8.31
2023-01-22T02:26:16.661Z,-8.32
2023-01-22T02:27:16.540Z,-8.27
2023-01-22T02:28:16.534Z,-8.31
2023-01-22T02:29:16.522Z,-8.21
2023-01-22T02:30:16.873Z,-8.11
2023-01-22T02:31:16.513Z,-8.35
2023-01-22T02:32:16.506Z,-8.34
2023-01-22T02:33:16.588Z,-8.37
2023-01-22T02:34:16.471Z,-8.18
2023-01-22T02:35:16.460Z,-8.18
2023-01-22T02:36:16.470Z,-8.13
2023-01-22T02:37:16.450Z,-8.27
2023-01-22T02:38:16.442Z,-8.22
2023-01-22T02:39:16.415Z,-8.28
2023-01-22T02:40:16.789Z,-8.28
2023-01-22T02:41:16.393Z,-8.29
2023-01-22T02:42:16.387Z,-8.27
2023-01-22T02:43:16.390Z,-8.37
2023-01-22T02:44:16.375Z,-8.34
2023-01-22T02:45:16.375Z,-8.32
2023-01-22T02:46:16.357Z,-8.25
2023-01-22T02:47:16.332Z,-8.32
2023-01-22T02:48:16.323Z,-8.34
2023-01-22T02:49:16.426Z,-8.25
2023-01-22T02:50:16.546Z,-8.22
2023-01-22T02:51:16.321Z,-8.42
2023-01-22T02:52:16.291Z,-8.45
2023-01-22T02:53:16.281Z,-8.53
2023-01-22T02:54:16.259Z,-8.31
2023-01-22T02:55:16.260Z,-8.47
2023-01-22T02:56:16.238Z,-8.47
2023-01-22T02:57:16.231Z,-8.42
2023-01-22T02:58:16.238Z,-8.60
2023-01-22T02:59:16.204Z,-8.56
2023-01-22T03:00:16.641Z,-8.61
2023-01-22T03:01:16.266Z,-8.37
2023-01-22T03:02:16.215Z,-8.55
2023-01-22T03:03:16.196Z,-8.50
2023-01-22T03:04:16.159Z,-8.56
2023-01-22T03:05:16.259Z,-8.34
2023-01-22T03:06:16.153Z,-8.50
2023-01-22T03:07:16.243Z,-8.46
2023-01-22T03:08:16.121Z,-8.55
2023-01-22T03:09:16.108Z,-8.37
2023-01-22T03:10:16.422Z,-8.56
2023-01-22T03:11:16.078Z,-8.32
2023-01-22T03:12:16.072Z,-8.55
2023-01-22T03:13:16.089Z,-8.42
2023-01-22T03:14:16.048Z,-8.45
2023-01-22T03:15:16.055Z,-8.46
2023-01-22T03:16:16.112Z,-8.45
2023-01-22T03:17:16.015Z,-8.46
2023-01-22T03:18:16.013Z,-8.43
2023-01-22T03:19:16.966Z,-8.45
2023-01-22T03:20:16.241Z,-8.60
2023-01-22T03:21:16.123Z,-8.60
2023-01-22T03:22:15.966Z,-8.55
2023-01-22T03:23:15.957Z,-8.53
2023-01-22T03:24:15.946Z,-8.53
2023-01-22T03:25:15.949Z,-8.42
2023-01-22T03:26:15.938Z,-8.39
2023-01-22T03:27:15.920Z,-8.47
2023-01-22T03:28:15.904Z,-8.39
2023-01-22T03:29:15.894Z,-8.42
2023-01-22T03:30:16.072Z,-8.52
2023-01-22T03:31:15.995Z,-8.49
2023-01-22T03:32:16.029Z,-8.52
2023-01-22T03:33:15.853Z,-8.43
2023-01-22T03:34:15.845Z,-8.56
2023-01-22T03:35:15.832Z,-8.56
2023-01-22T03:36:15.829Z,-8.50
2023-01-22T03:37:15.932Z,-8.61
2023-01-22T03:38:15.814Z,-8.60
2023-01-22T03:39:15.789Z,-8.64
2023-01-22T03:40:16.113Z,-8.60
2023-01-22T03:41:15.801Z,-8.61
2023-01-22T03:42:15.759Z,-8.55
2023-01-22T03:43:15.756Z,-8.58
2023-01-22T03:44:15.748Z,-8.67
2023-01-22T03:45:15.728Z,-8.68
2023-01-22T03:46:15.882Z,-8.66
2023-01-22T03:47:15.719Z,-8.68
2023-01-22T03:48:15.698Z,-8.76
2023-01-22T03:49:15.698Z,-8.86
2023-01-22T03:50:16.231Z,-8.74
2023-01-22T03:51:15.730Z,-8.85
2023-01-22T03:52:15.654Z,-8.85
2023-01-22T03:53:15.775Z,-8.73
2023-01-22T03:54:15.642Z,-8.91
2023-01-22T03:55:15.640Z,-8.86
2023-01-22T03:56:15.617Z,-8.89
2023-01-22T03:57:15.645Z,-9.07
2023-01-22T03:58:15.592Z,-8.81
2023-01-22T03:59:15.589Z,-9.02
2023-01-22T04:00:15.687Z,-8.94
2023-01-22T04:01:15.633Z,-9.03
2023-01-22T04:02:15.602Z,-9.26
2023-01-22T04:03:15.537Z,-9.03
2023-01-22T04:04:15.549Z,-8.99
2023-01-22T04:05:15.514Z,-9.02
2023-01-22T04:06:15.511Z,-9.10
2023-01-22T04:07:15.532Z,-9.16
2023-01-22T04:08:15.489Z,-9.12
2023-01-22T04:09:15.628Z,-9.07
2023-01-22T04:10:15.792Z,-9.09
2023-01-22T04:11:15.471Z,-9.06
2023-01-22T04:12:15.450Z,-9.23
2023-01-22T04:13:15.460Z,-9.16
2023-01-22T04:14:15.453Z,-9.12
2023-01-22T04:15:15.416Z,-9.23
2023-01-22T04:16:15.456Z,-9.07
2023-01-22T04:17:15.395Z,-9.26
2023-01-22T04:18:15.387Z,-9.26
2023-01-22T04:19:15.406Z,-9.20
2023-01-22T04:20:15.495Z,-9.36
2023-01-22T04:21:15.363Z,-9.35
2023-01-22T04:22:15.353Z,-9.14
2023-01-22T04:23:15.333Z,-9.20
2023-01-22T04:24:15.321Z,-9.14
2023-01-22T04:25:15.444Z,-9.26
2023-01-22T04:26:15.301Z,-9.24
2023-01-22T04:27:15.299Z,-9.31
2023-01-22T04:28:15.291Z,-9.18
2023-01-22T04:29:15.271Z,-9.31
2023-01-22T04:30:15.390Z,-9.26
2023-01-22T04:31:15.403Z,-9.24
2023-01-22T04:32:15.247Z,-9.16
2023-01-22T04:33:15.228Z,-9.28
2023-01-22T04:34:15.329Z,-9.21
2023-01-22T04:35:15.216Z,-9.41
2023-01-22T04:36:15.198Z,-9.20
2023-01-22T04:37:15.254Z,-9.26
2023-01-22T04:38:15.179Z,-9.39
2023-01-22T04:39:15.181Z,-9.23
2023-01-22T04:40:15.212Z,-9.39
2023-01-22T04:41:15.295Z,-9.35
2023-01-22T04:42:15.233Z,-9.39
2023-01-22T04:43:15.145Z,-9.45
2023-01-22T04:44:15.123Z,-9.28
2023-01-22T04:45:15.107Z,-9.34
2023-01-22T04:46:15.155Z,-9.20
2023-01-22T04:47:15.089Z,-9.35
2023-01-22T04:48:15.085Z,-9.24
2023-01-22T04:49:15.086Z,-9.30
2023-01-22T04:50:15.094Z,-9.26
2023-01-22T04:51:15.078Z,-9.24
2023-01-22T04:52:15.037Z,-9.30
2023-01-22T04:53:15.042Z,-9.38
2023-01-22T04:54:15.029Z,-9.39
2023-01-22T04:55:15.042Z,-9.43
2023-01-22T04:56:14.999Z,-9.35
2023-01-22T04:57:20.979Z,-9.45
2023-01-22T04:58:16.111Z,-9.27
2023-01-22T04:59:14.969Z,-9.38
2023-01-22T05:00:15.103Z,-9.35
2023-01-22T05:01:15.013Z,-9.56
2023-01-22T05:02:15.032Z,-9.43
2023-01-22T05:03:14.918Z,-9.34
2023-01-22T05:04:14.924Z,-9.23
2023-01-22T05:05:14.910Z,-9.38
2023-01-22T05:06:14.896Z,-9.35
2023-01-22T05:07:14.905Z,-9.43
2023-01-22T05:08:14.881Z,-9.50
2023-01-22T05:09:14.856Z,-9.47
2023-01-22T05:10:14.858Z,-9.41
2023-01-22T05:11:14.838Z,-9.43
2023-01-22T05:12:14.827Z,-9.46
2023-01-22T05:13:14.855Z,-9.41
2023-01-22T05:14:14.924Z,-9.46
2023-01-22T05:15:23.529Z,-9.34
2023-01-22T05:16:15.826Z,-9.53
2023-01-22T05:17:14.783Z,-9.39
2023-01-22T05:18:14.771Z,-9.41
2023-01-22T05:19:14.755Z,-9.30
2023-01-22T05:20:14.876Z,-9.43
2023-01-22T05:21:14.731Z,-9.53
2023-01-22T05:22:14.725Z,-9.39
2023-01-22T05:23:14.710Z,-9.34
2023-01-22T05:24:14.718Z,-9.27
2023-01-22T05:25:14.695Z,-9.38
2023-01-22T05:26:14.700Z,-9.26
2023-01-22T05:27:14.678Z,-9.36
2023-01-22T05:28:14.666Z,-9.26
2023-01-22T05:29:14.660Z,-9.17
2023-01-22T05:30:14.787Z,-9.34
2023-01-22T05:31:14.741Z,-9.27
2023-01-22T05:32:14.639Z,-9.21
2023-01-22T05:33:14.609Z,-9.38
2023-01-22T05:34:14.625Z,-9.24
2023-01-22T05:35:14.589Z,-9.35
2023-01-22T05:36:14.581Z,-9.31
2023-01-22T05:37:14.567Z,-9.39
2023-01-22T05:38:14.583Z,-9.24
2023-01-22T05:39:14.547Z,-9.17
2023-01-22T05:40:14.554Z,-9.28
2023-01-22T05:41:14.529Z,-9.17
2023-01-22T05:42:14.534Z,-9.23
2023-01-22T05:43:14.510Z,-9.06
2023-01-22T05:44:14.507Z,-9.20
2023-01-22T05:45:14.495Z,-9.21
2023-01-22T05:46:14.653Z,-9.18
2023-01-22T05:47:14.490Z,-9.20
2023-01-22T05:48:14.457Z,-9.07
2023-01-22T05:49:14.453Z,-9.09
2023-01-22T05:50:14.472Z,-9.07
2023-01-22T05:51:14.509Z,-9.20
2023-01-22T05:52:14.415Z,-9.10
2023-01-22T05:53:14.408Z,-9.02
2023-01-22T05:54:14.402Z,-9.12
2023-01-22T05:55:14.397Z,-9.26
2023-01-22T05:56:14.388Z,-9.23
2023-01-22T05:57:14.372Z,-9.35
2023-01-22T05:58:14.365Z,-9.20
2023-01-22T05:59:14.351Z,-9.24
2023-01-22T06:00:14.369Z,-9.23
2023-01-22T06:01:14.329Z,-9.34
2023-01-22T06:02:14.525Z,-9.24
2023-01-22T06:03:14.306Z,-9.41
2023-01-22T06:04:14.289Z,-9.34
2023-01-22T06:05:14.337Z,-9.45
2023-01-22T06:06:14.292Z,-9.18
2023-01-22T06:07:14.262Z,-9.36
2023-01-22T06:08:14.266Z,-9.31
2023-01-22T06:09:14.240Z,-9.43
2023-01-22T06:10:14.240Z,-9.27
2023-01-22T06:11:14.222Z,-9.34
2023-01-22T06:12:14.238Z,-9.28
2023-01-22T06:13:14.200Z,-9.34
2023-01-22T06:14:14.208Z,-9.57
2023-01-22T06:15:14.204Z,-9.50
2023-01-22T06:16:14.214Z,-9.50
2023-01-22T06:17:14.164Z,-9.67
2023-01-22T06:18:14.267Z,-9.70
2023-01-22T06:19:14.145Z,-9.56
2023-01-22T06:20:14.138Z,-9.53
2023-01-22T06:21:14.146Z,-9.56
2023-01-22T06:22:14.104Z,-9.60
2023-01-22T06:23:14.100Z,-9.67
2023-01-22T06:24:14.082Z,-9.63
2023-01-22T06:25:14.076Z,-9.67
2023-01-22T06:26:14.077Z,-9.46
2023-01-22T06:27:14.075Z,-9.57
2023-01-22T06:28:14.042Z,-9.64
2023-01-22T06:29:14.058Z,-9.56
2023-01-22T06:30:14.021Z,-9.60
2023-01-22T06:31:14.145Z,-9.53
2023-01-22T06:32:14.024Z,-9.57
2023-01-22T06:33:14.012Z,-9.54
2023-01-22T06:34:14.095Z,-9.70
2023-01-22T06:35:13.973Z,-9.78
2023-01-22T06:36:13.964Z,-9.87
2023-01-22T06:37:13.953Z,-9.68
2023-01-22T06:38:13.986Z,-9.72
2023-01-22T06:39:13.948Z,-9.66
2023-01-22T06:40:13.921Z,-9.78
2023-01-22T06:41:13.919Z,-9.92
2023-01-22T06:42:13.897Z,-9.90
2023-01-22T06:43:13.902Z,-9.88
2023-01-22T06:44:13.902Z,-9.84
2023-01-22T06:45:13.880Z,-9.93
2023-01-22T06:46:13.874Z,-9.99
2023-01-22T06:47:13.856Z,-9.88
2023-01-22T06:48:13.865Z,-10.02
2023-01-22T06:49:13.878Z,-10.05
2023-01-22T06:50:13.939Z,-9.87
2023-01-22T06:51:13.847Z,-9.88
2023-01-22T06:52:13.808Z,-9.85
2023-01-22T06:53:13.794Z,-10.02
2023-01-22T06:54:13.798Z,-9.99
2023-01-22T06:55:13.785Z,-9.90
2023-01-22T06:56:13.777Z,-9.97
2023-01-22T06:57:13.760Z,-9.78
2023-01-22T06:58:13.744Z,-9.95
2023-01-22T06:59:13.727Z,-9.81
2023-01-22T07:00:13.738Z,-9.95
2023-01-22T07:01:13.718Z,-9.81
2023-01-22T07:02:13.707Z,-10.02
2023-01-22T07:03:13.693Z,-9.97
2023-01-22T07:04:13.682Z,-9.84
2023-01-22T07:05:13.687Z,-10.02
2023-01-22T07:06:13.767Z,-9.84
2023-01-22T07:07:13.647Z,-9.87
2023-01-22T07:08:13.643Z,-9.93
2023-01-22T07:09:13.624Z,-9.99
2023-01-22T07:10:13.611Z,-10.05
2023-01-22T07:11:13.612Z,-10.08
2023-01-22T07:12:13.590Z,-9.97
2023-01-22T07:13:13.585Z,-10.05
2023-01-22T07:14:13.602Z,-10.13
2023-01-22T07:15:13.561Z,-10.03
2023-01-22T07:16:13.589Z,-10.02
2023-01-22T07:17:13.568Z,-9.93
2023-01-22T07:18:13.528Z,-9.97
2023-01-22T07:19:13.519Z,-9.99
2023-01-22T07:20:13.519Z,-10.03
2023-01-22T07:21:13.518Z,-9.97
2023-01-22T07:22:13.632Z,-9.99
2023-01-22T07:23:13.485Z,-10.06
2023-01-22T07:24:13.467Z,-9.99
2023-01-22T07:25:13.465Z,-10.00
2023-01-22T07:26:13.484Z,-10.08
2023-01-22T07:27:13.453Z,-10.11
2023-01-22T07:28:13.429Z,-10.10
2023-01-22T07:29:13.417Z,-10.14
2023-01-22T07:30:13.425Z,-10.05
2023-01-22T07:31:13.525Z,-10.08
2023-01-22T07:32:13.414Z,-10.08
2023-01-22T07:33:13.379Z,-10.03
2023-01-22T07:34:13.364Z,-10.06
2023-01-22T07:35:13.359Z,-10.10
2023-01-22T07:36:13.351Z,-9.82
2023-01-22T07:37:13.335Z,-9.93
2023-01-22T07:38:13.466Z,-9.85
2023-01-22T07:39:13.323Z,-9.77
2023-01-22T07:40:13.306Z,-9.75
2023-01-22T07:41:25.192Z,-9.70
2023-01-22T07:42:14.294Z,-9.78
2023-01-22T07:43:13.275Z,-9.77
2023-01-22T07:44:13.307Z,-9.61
2023-01-22T07:45:13.259Z,-9.78
2023-01-22T07:46:13.295Z,-9.66
2023-01-22T07:47:13.234Z,-9.64
2023-01-22T07:48:13.225Z,-9.53
2023-01-22T07:49:13.209Z,-9.46
2023-01-22T07:50:13.232Z,-9.50
2023-01-22T07:51:13.252Z,-9.53
2023-01-22T07:52:13.192Z,-9.61
2023-01-22T07:53:13.168Z,-9.49
2023-01-22T07:54:13.445Z,-9.68
2023-01-22T07:55:13.147Z,-9.50
2023-01-22T07:56:13.168Z,-9.68
2023-01-22T07:57:13.128Z,-9.56
2023-01-22T07:58:13.119Z,-9.60
2023-01-22T07:59:13.113Z,-9.50
2023-01-22T08:00:13.120Z,-9.61
2023-01-22T08:01:13.161Z,-9.53
2023-01-22T08:02:13.133Z,-9.49
2023-01-22T08:03:13.069Z,-9.58
2023-01-22T08:04:13.059Z,-9.46
2023-01-22T08:05:13.046Z,-9.43
2023-01-22T08:06:13.048Z,-9.57
2023-01-22T08:07:13.023Z,-9.61
2023-01-22T08:08:13.035Z,-9.45
2023-01-22T08:09:13.005Z,-9.41
2023-01-22T08:10:13.128Z,-9.58
2023-01-22T08:11:12.983Z,-9.50
2023-01-22T08:12:13.000Z,-9.61
2023-01-22T08:13:12.961Z,-9.64
2023-01-22T08:14:12.970Z,-9.45
2023-01-22T08:15:12.942Z,-9.60
2023-01-22T08:16:12.989Z,-9.43
2023-01-22T08:17:12.923Z,-9.70
2023-01-22T08:18:12.912Z,-9.57
2023-01-22T08:19:12.909Z,-9.58
2023-01-22T08:20:12.911Z,-9.49
2023-01-22T08:21:12.894Z,-9.43
2023-01-22T08:22:12.872Z,-9.46
2023-01-22T08:23:12.860Z,-9.43
2023-01-22T08:24:12.853Z,-9.36
2023-01-22T08:25:12.843Z,-9.45
2023-01-22T08:26:12.952Z,-9.57
2023-01-22T08:27:12.828Z,-9.54
2023-01-22T08:28:12.812Z,-9.43
2023-01-22T08:29:12.811Z,-9.50
2023-01-22T08:30:12.809Z,-9.56
2023-01-22T08:31:26.458Z,-9.50
2023-01-22T08:32:13.856Z,-9.47
2023-01-22T08:33:12.770Z,-9.31
2023-01-22T08:34:12.763Z,-9.53
2023-01-22T08:35:13.098Z,-9.54
2023-01-22T08:36:12.734Z,-9.30
2023-01-22T08:37:12.723Z,-9.54
2023-01-22T08:38:12.732Z,-9.31
2023-01-22T08:39:12.705Z,-9.45
2023-01-22T08:40:12.690Z,-9.46
2023-01-22T08:41:12.673Z,-9.20
2023-01-22T08:42:12.783Z,-9.28
2023-01-22T08:43:12.658Z,-9.41
2023-01-22T08:44:12.681Z,-9.23
2023-01-22T08:45:12.634Z,-9.43
2023-01-22T08:46:12.697Z,-9.28
2023-01-22T08:47:12.612Z,-9.21
2023-01-22T08:48:12.611Z,-9.18
2023-01-22T08:49:12.594Z,-9.10
2023-01-22T08:50:12.611Z,-9.24
2023-01-22T08:51:12.647Z,-9.16
2023-01-22T08:52:12.564Z,-9.24
2023-01-22T08:53:20.070Z,-9.03
2023-01-22T08:54:12.544Z,-9.07
2023-01-22T08:55:20.071Z,-9.16
2023-01-22T08:56:20.040Z,-9.06
2023-01-22T08:57:12.507Z,-9.05
2023-01-22T08:58:12.626Z,-9.06
2023-01-22T08:59:12.488Z,-9.00
2023-01-22T09:00:12.488Z,-9.05
2023-01-22T09:01:12.554Z,-9.02
2023-01-22T09:02:12.554Z,-9.07
2023-01-22T09:03:12.449Z,-9.09
2023-01-22T09:04:12.474Z,-8.96
2023-01-22T09:05:12.427Z,-8.86
2023-01-22T09:06:12.421Z,-9.07
2023-01-22T09:07:12.407Z,-8.97
2023-01-22T09:08:12.407Z,-8.96
2023-01-22T09:09:12.429Z,-8.96
2023-01-22T09:10:12.394Z,-8.86
2023-01-22T09:11:12.372Z,-8.86
2023-01-22T09:12:12.358Z,-8.88
2023-01-22T09:13:12.355Z,-8.96
2023-01-22T09:14:12.480Z,-8.82
2023-01-22T09:15:12.370Z,-8.78
2023-01-22T09:16:12.362Z,-8.81
2023-01-22T09:17:12.315Z,-8.81
2023-01-22T09:18:12.333Z,-8.74
2023-01-22T09:19:14.308Z,-8.74
2023-01-22T09:20:12.328Z,-8.74
2023-01-22T09:21:12.334Z,-8.60
2023-01-22T09:22:12.304Z,-8.53
2023-01-22T09:23:14.254Z,-8.52
2023-01-22T09:24:12.279Z,-8.35
2023-01-22T09:25:12.272Z,-8.42
2023-01-22T09:26:12.285Z,-8.55
2023-01-22T09:27:12.269Z,-8.53
2023-01-22T09:28:12.213Z,-8.25
2023-01-22T09:29:12.182Z,-8.06
2023-01-22T09:30:12.308Z,-7.89
2023-01-22T09:31:12.241Z,-7.10
2023-01-22T09:32:12.157Z,-6.32
2023-01-22T09:33:12.153Z,-5.73
2023-01-22T09:34:12.128Z,-5.23
2023-01-22T09:35:12.116Z,-5.09
2023-01-22T09:36:12.125Z,-4.93
2023-01-22T09:37:12.105Z,-4.73
2023-01-22T09:38:12.087Z,-4.48
2023-01-22T09:39:12.103Z,-4.36
2023-01-22T09:40:12.067Z,-4.54
2023-01-22T09:41:12.071Z,-4.44
2023-01-22T09:42:12.053Z,-4.34
2023-01-22T09:43:12.044Z,-4.41
2023-01-22T09:44:12.026Z,-4.40
2023-01-22T09:45:12.040Z,-4.09
2023-01-22T09:46:12.190Z,-3.98
2023-01-22T09:47:11.993Z,-4.06
2023-01-22T09:48:11.985Z,-3.74
2023-01-22T09:49:11.978Z,-3.74
2023-01-22T09:50:11.970Z,-3.86
2023-01-22T09:51:11.995Z,-3.72
2023-01-22T09:52:11.946Z,-3.65
2023-01-22T09:53:11.931Z,-3.61
2023-01-22T09:54:11.934Z,-3.41
2023-01-22T09:55:11.911Z,-3.57
2023-01-22T09:56:11.896Z,-3.54
2023-01-22T09:57:19.898Z,-3.44
2023-01-22T09:58:12.874Z,-3.44
2023-01-22T09:59:11.872Z,-3.18
2023-01-22T10:00:11.961Z,-3.36
2023-01-22T10:01:11.857Z,-3.52
2023-01-22T10:02:12.053Z,-3.62
2023-01-22T10:03:11.856Z,-3.70
2023-01-22T10:04:11.811Z,-3.72
2023-01-22T10:05:11.803Z,-3.51
2023-01-22T10:06:11.807Z,-3.46
2023-01-22T10:07:11.784Z,-3.68
2023-01-22T10:08:11.771Z,-3.22
2023-01-22T10:09:11.769Z,-2.86
2023-01-22T10:10:11.758Z,-3.44
2023-01-22T10:11:11.745Z,-3.91
2023-01-22T10:12:11.737Z,-3.89
2023-01-22T10:13:11.726Z,-4.16
2023-01-22T10:14:11.706Z,-4.52
2023-01-22T10:15:11.731Z,-4.66
2023-01-22T10:16:11.683Z,-4.79
2023-01-22T10:17:11.691Z,-5.05
2023-01-22T10:18:11.800Z,-5.06
2023-01-22T10:19:11.657Z,-5.13
2023-01-22T10:20:11.654Z,-5.17
2023-01-22T10:21:11.677Z,-5.20
2023-01-22T10:22:11.629Z,-4.95
2023-01-22T10:23:11.611Z,-4.99
2023-01-22T10:24:11.605Z,-4.69
2023-01-22T10:25:11.603Z,-4.95
2023-01-22T10:26:13.254Z,-4.73
2023-01-22T10:27:11.605Z,-4.91
2023-01-22T10:28:11.559Z,-4.94
2023-01-22T10:29:11.552Z,-5.02
2023-01-22T10:30:11.544Z,-5.05
2023-01-22T10:31:11.633Z,-5.08
2023-01-22T10:32:12.244Z,-5.20
2023-01-22T10:33:11.533Z,-5.31
2023-01-22T10:34:11.633Z,-5.38
2023-01-22T10:35:11.491Z,-5.31
2023-01-22T10:36:11.489Z,-5.05
2023-01-22T10:37:11.478Z,-5.41
2023-01-22T10:38:11.452Z,-5.28
2023-01-22T10:39:11.473Z,-5.05
2023-01-22T10:40:11.434Z,-5.06
2023-01-22T10:41:11.425Z,-4.94
2023-01-22T10:42:11.431Z,-5.05
2023-01-22T10:43:11.409Z,-5.33
2023-01-22T10:44:11.394Z,-5.28
2023-01-22T10:45:11.395Z,-5.38
2023-01-22T10:46:11.419Z,-5.67
2023-01-22T10:47:11.358Z,-5.80
2023-01-22T10:48:11.353Z,-5.64
2023-01-22T10:49:11.341Z,-5.63
2023-01-22T10:50:11.450Z,-5.70
2023-01-22T10:51:11.399Z,-5.46
2023-01-22T10:52:11.314Z,-5.73
2023-01-22T10:53:11.297Z,-5.77
2023-01-22T10:54:11.282Z,-5.85
2023-01-22T10:55:11.273Z,-5.70
2023-01-22T10:56:12.514Z,-5.64
2023-01-22T10:57:11.266Z,-5.63
2023-01-22T10:58:11.245Z,-5.67
2023-01-22T10:59:11.236Z,-5.55
2023-01-22T11:00:11.226Z,-5.45
2023-01-22T11:01:11.246Z,-5.46
2023-01-22T11:02:11.264Z,-5.38
2023-01-22T11:03:11.190Z,-5.34
2023-01-22T11:04:11.177Z,-5.39
2023-01-22T11:05:11.166Z,-5.63
2023-01-22T11:06:11.278Z,-5.57
2023-01-22T11:07:11.162Z,-5.43
2023-01-22T11:08:11.146Z,-5.42
2023-01-22T11:09:11.137Z,-5.49
2023-01-22T11:10:11.112Z,-5.48
2023-01-22T11:11:11.101Z,-5.35
2023-01-22T11:12:11.099Z,-5.12
2023-01-22T11:13:11.081Z,-5.31
2023-01-22T11:14:11.093Z,-5.35
2023-01-22T11:15:11.064Z,-5.23
2023-01-22T11:16:11.181Z,-5.13
2023-01-22T11:17:11.047Z,-5.39
2023-01-22T11:18:11.028Z,-5.42
2023-01-22T11:19:11.030Z,-5.42
2023-01-22T11:20:11.013Z,-5.49
2023-01-22T11:21:11.003Z,-5.52
2023-01-22T11:22:11.106Z,-5.35
2023-01-22T11:23:10.987Z,-5.20
2023-01-22T11:24:10.966Z,-5.09
2023-01-22T11:25:10.965Z,-4.90
2023-01-22T11:26:10.938Z,-4.94
2023-01-22T11:27:10.943Z,-4.70
2023-01-22T11:28:10.935Z,-4.41
2023-01-22T11:29:10.915Z,-4.17
2023-01-22T11:30:10.905Z,-4.06
2023-01-22T11:31:10.967Z,-4.07
2023-01-22T11:32:10.876Z,-4.09
2023-01-22T11:33:10.874Z,-3.84
2023-01-22T11:34:10.863Z,-3.98
2023-01-22T11:35:10.847Z,-4.13
2023-01-22T11:36:10.845Z,-4.34
2023-01-22T11:37:10.834Z,-3.58
2023-01-22T11:38:11.034Z,-3.70
2023-01-22T11:39:10.806Z,-3.39
2023-01-22T11:40:10.805Z,-3.10
2023-01-22T11:41:10.791Z,-2.94
2023-01-22T11:42:10.771Z,-3.33
2023-01-22T11:43:10.775Z,-2.80
2023-01-22T11:44:10.767Z,-2.43
2023-01-22T11:45:10.742Z,-2.11
2023-01-22T11:46:10.773Z,-1.54
2023-01-22T11:47:10.726Z,-1.50
2023-01-22T11:48:10.709Z,-2.07
2023-01-22T11:49:10.703Z,-2.14
2023-01-22T11:50:10.704Z,-1.98
2023-01-22T11:51:10.836Z,-2.25
2023-01-22T11:52:10.669Z,-2.46
2023-01-22T11:53:10.677Z,-3.00
2023-01-22T11:54:12.150Z,-2.97
2023-01-22T11:55:10.633Z,-2.47
2023-01-22T11:56:10.632Z,-2.13
2023-01-22T11:57:10.619Z,-2.00
2023-01-22T11:58:10.604Z,-1.75
2023-01-22T11:59:10.599Z,-1.95
2023-01-22T12:00:10.612Z,-1.54
2023-01-22T12:01:10.570Z,-2.10
2023-01-22T12:02:10.567Z,-2.46
2023-01-22T12:03:10.549Z,-2.07
2023-01-22T12:04:10.595Z,-1.68
2023-01-22T12:05:10.529Z,-1.49
2023-01-22T12:06:10.525Z,-1.28
2023-01-22T12:07:10.526Z,-2.28
2023-01-22T12:08:10.498Z,-2.82
2023-01-22T12:09:10.484Z,-3.16
2023-01-22T12:10:10.588Z,-3.34
2023-01-22T12:11:10.476Z,-3.41
2023-01-22T12:12:10.459Z,-3.51
2023-01-22T12:13:10.452Z,-3.92
2023-01-22T12:14:10.514Z,-3.94
2023-01-22T12:15:10.459Z,-4.07
2023-01-22T12:16:10.506Z,-4.12
2023-01-22T12:17:10.412Z,-4.17
2023-01-22T12:18:10.447Z,-4.22
2023-01-22T12:19:10.410Z,-4.09
2023-01-22T12:20:10.405Z,-4.51
2023-01-22T12:21:10.374Z,-4.65
2023-01-22T12:22:10.364Z,-4.40
2023-01-22T12:23:10.354Z,-4.26
2023-01-22T12:24:10.333Z,-4.17
2023-01-22T12:25:10.317Z,-4.17
2023-01-22T12:26:10.426Z,-4.10
2023-01-22T12:27:12.395Z,-4.09
2023-01-22T12:28:10.311Z,-4.02
2023-01-22T12:29:10.283Z,-3.99
2023-01-22T12:30:10.273Z,-3.89
2023-01-22T12:31:10.385Z,-3.80
2023-01-22T12:32:10.240Z,-3.33
2023-01-22T12:33:10.239Z,-2.90
2023-01-22T12:34:10.217Z,-2.68
2023-01-22T12:35:10.213Z,-2.41
2023-01-22T12:36:10.218Z,-2.64
2023-01-22T12:37:10.197Z,-2.72
2023-01-22T12:38:12.244Z,-3.22
2023-01-22T12:39:10.165Z,-3.34
2023-01-22T12:40:10.154Z,-3.43
2023-01-22T12:41:10.166Z,-3.64
2023-01-22T12:42:10.243Z,-3.25
2023-01-22T12:43:10.136Z,-3.28
2023-01-22T12:44:10.644Z,-3.26
2023-01-22T12:45:10.115Z,-3.28
2023-01-22T12:46:10.127Z,-3.18
2023-01-22T12:47:10.079Z,-3.23
2023-01-22T12:48:10.075Z,-3.08
2023-01-22T12:49:10.072Z,-2.61
2023-01-22T12:50:10.053Z,-2.64
2023-01-22T12:51:10.077Z,-2.62